sensor_id;sensor_type;location;lat;lon;timestamp;pressure;altitude;pressure_sealevel;temperature;humidity
6034;BME280;3045;43.226;27.858;2022-08-19T00:01:28;152114.28;;;24.16;100.00
6034;BME280;3045;43.226;27.858;2022-08-19T00:03:55;152138.56;;;24.26;100.00
6034;BME280;3045;43.226;27.858;2022-08-19T00:06:22;152150.06;;;24.30;100.00
6034;BME280;3045;43.226;27.858;2022-08-19T00:08:51;152170.47;;;24.38;100.00
6034;BME280;3045;43.226;27.858;2022-08-19T00:11:18;152173.03;;;24.39;100.00
6034;BME280;3045;43.226;27.858;2022-08-19T00:13:46;152138.56;;;24.26;100.00
6034;BME280;3045;43.226;27.858;2022-08-19T00:16:14;152093.81;;;24.08;100.00
6034;BME280;3045;43.226;27.858;2022-08-19T00:18:40;152077.25;;;24.01;100.00
6034;BME280;3045;43.226;27.858;2022-08-19T00:21:07;152082.31;;;24.03;100.00
6034;BME280;3045;43.226;27.858;2022-08-19T00:23:34;152069.53;;;23.98;100.00
6034;BME280;3045;43.226;27.858;2022-08-19T00:26:03;152069.53;;;23.98;100.00
6034;BME280;3045;43.226;27.858;2022-08-19T00:28:30;152052.97;;;23.92;100.00
6034;BME280;3045;43.226;27.858;2022-08-19T00:30:58;152033.84;;;23.84;100.00
6034;BME280;3045;43.226;27.858;2022-08-19T00:33:25;147791.47;;;23.71;100.00
6034;BME280;3045;43.226;27.858;2022-08-19T00:35:52;139383.88;;;23.62;100.00
6034;BME280;3045;43.226;27.858;2022-08-19T00:38:19;131218.25;;;23.53;100.00
6034;BME280;3045;43.226;27.858;2022-08-19T00:40:48;132574.56;;;23.53;100.00
6034;BME280;3045;43.226;27.858;2022-08-19T00:43:21;127810.34;;;23.44;100.00
6034;BME280;3045;43.226;27.858;2022-08-19T00:45:48;131211.63;;;23.50;100.00
6034;BME280;3045;43.226;27.858;2022-08-19T00:48:16;127807.06;;;23.43;100.00
6034;BME280;3045;43.226;27.858;2022-08-19T00:50:44;137323.47;;;23.52;100.00
6034;BME280;3045;43.226;27.858;2022-08-19T00:53:14;146468.81;;;23.64;100.00
6034;BME280;3045;43.226;27.858;2022-08-19T00:55:45;151976.38;;;23.61;100.00
6034;BME280;3045;43.226;27.858;2022-08-19T00:58:15;152023.63;;;23.80;100.00
6034;BME280;3045;43.226;27.858;2022-08-19T01:00:44;152004.44;;;23.73;100.00
6034;BME280;3045;43.226;27.858;2022-08-19T01:03:13;152018.50;;;23.78;100.00
6034;BME280;3045;43.226;27.858;2022-08-19T01:05:42;152021.06;;;23.79;100.00
6034;BME280;3045;43.226;27.858;2022-08-19T01:08:11;151962.31;;;23.56;100.00
6034;BME280;3045;43.226;27.858;2022-08-19T01:10:41;151813.03;;;23.68;100.00
6034;BME280;3045;43.226;27.858;2022-08-19T01:13:10;151170.94;;;23.58;100.00
6034;BME280;3045;43.226;27.858;2022-08-19T01:15:42;147589.56;;;23.61;100.00
6034;BME280;3045;43.226;27.858;2022-08-19T01:18:13;130823.09;;;23.28;100.00
6034;BME280;3045;43.226;27.858;2022-08-19T01:20:41;118632.91;;;23.21;100.00
6034;BME280;3045;43.226;27.858;2022-08-19T01:23:10;125060.16;;;23.24;100.00
6034;BME280;3045;43.226;27.858;2022-08-19T01:25:42;126100.53;;;23.36;100.00
6034;BME280;3045;43.226;27.858;2022-08-19T01:28:15;130513.91;;;23.41;100.00
6034;BME280;3045;43.226;27.858;2022-08-19T01:30:44;129832.91;;;23.40;100.00
6034;BME280;3045;43.226;27.858;2022-08-19T01:33:11;135596.22;;;23.39;100.00
6034;BME280;3045;43.226;27.858;2022-08-19T01:35:38;133528.13;;;23.25;100.00
6034;BME280;3045;43.226;27.858;2022-08-19T01:38:08;125035.97;;;23.12;100.00
6034;BME280;3045;43.226;27.858;2022-08-19T01:40:39;122024.22;;;23.28;100.00
6034;BME280;3045;43.226;27.858;2022-08-19T01:43:07;114204.03;;;22.99;100.00
6034;BME280;3045;43.226;27.858;2022-08-19T01:45:35;122343.69;;;23.18;100.00
6034;BME280;3045;43.226;27.858;2022-08-19T01:48:06;118633.88;;;23.21;100.00
6034;BME280;3045;43.226;27.858;2022-08-19T01:50:34;116953.97;;;23.26;100.00
6034;BME280;3045;43.226;27.858;2022-08-19T01:53:04;126092.06;;;23.32;100.00
6034;BME280;3045;43.226;27.858;2022-08-19T01:55:31;123376.47;;;23.28;100.00
6034;BME280;3045;43.226;27.858;2022-08-19T01:58:02;128469.28;;;23.36;100.00
6034;BME280;3045;43.226;27.858;2022-08-19T02:00:31;121338.06;;;23.22;100.00
6034;BME280;3045;43.226;27.858;2022-08-19T02:02:58;116276.09;;;23.24;100.00
6034;BME280;3045;43.226;27.858;2022-08-19T02:05:26;123380.63;;;23.30;100.00
6034;BME280;3045;43.226;27.858;2022-08-19T02:07:54;128832.91;;;23.47;100.00
6034;BME280;3045;43.226;27.858;2022-08-19T02:10:22;132883.53;;;23.40;100.00
6034;BME280;3045;43.226;27.858;2022-08-19T02:12:49;128462.81;;;23.33;100.00
6034;BME280;3045;43.226;27.858;2022-08-19T02:15:19;122405.50;;;23.49;100.00
6034;BME280;3045;43.226;27.858;2022-08-19T02:17:46;125128.56;;;23.57;100.00
6034;BME280;3045;43.226;27.858;2022-08-19T02:20:13;132235.44;;;23.53;100.00
6034;BME280;3045;43.226;27.858;2022-08-19T02:22:40;139381.53;;;23.61;100.00
6034;BME280;3045;43.226;27.858;2022-08-19T02:25:09;141887.09;;;23.67;100.00
6034;BME280;3045;43.226;27.858;2022-08-19T02:27:35;141150.69;;;23.50;100.00
6034;BME280;3045;43.226;27.858;2022-08-19T02:30:04;150685.53;;;23.63;100.00
6034;BME280;3045;43.226;27.858;2022-08-19T02:32:33;150823.88;;;23.64;100.00
6034;BME280;3045;43.226;27.858;2022-08-19T02:35:00;143479.41;;;23.49;100.00
6034;BME280;3045;43.226;27.858;2022-08-19T02:37:29;143352.09;;;23.48;100.00
6034;BME280;3045;43.226;27.858;2022-08-19T02:40:10;134260.53;;;23.49;100.00
6034;BME280;3045;43.226;27.858;2022-08-19T02:42:37;140819.13;;;23.25;100.00
6034;BME280;3045;43.226;27.858;2022-08-19T02:45:06;144893.03;;;23.51;100.00
6034;BME280;3045;43.226;27.858;2022-08-19T02:47:35;151933.00;;;23.44;100.00
6034;BME280;3045;43.226;27.858;2022-08-19T02:50:03;151952.13;;;23.52;100.00
6034;BME280;3045;43.226;27.858;2022-08-19T02:52:31;151962.31;;;23.56;100.00
6034;BME280;3045;43.226;27.858;2022-08-19T02:54:59;151924.00;;;23.41;100.00
6034;BME280;3045;43.226;27.858;2022-08-19T02:57:26;151959.81;;;23.55;100.00
6034;BME280;3045;43.226;27.858;2022-08-19T02:59:54;151957.25;;;23.54;100.00
6034;BME280;3045;43.226;27.858;2022-08-19T03:02:20;151982.75;;;23.64;100.00
6034;BME280;3045;43.226;27.858;2022-08-19T03:04:49;151973.81;;;23.60;100.00
6034;BME280;3045;43.226;27.858;2022-08-19T03:07:16;151934.28;;;23.45;100.00
6034;BME280;3045;43.226;27.858;2022-08-19T03:09:44;151915.09;;;23.37;100.00
6034;BME280;3045;43.226;27.858;2022-08-19T03:12:11;151986.59;;;23.65;100.00
6034;BME280;3045;43.226;27.858;2022-08-19T03:14:38;151982.75;;;23.64;100.00
6034;BME280;3045;43.226;27.858;2022-08-19T03:17:04;151986.59;;;23.65;100.00
6034;BME280;3045;43.226;27.858;2022-08-19T03:19:31;151980.22;;;23.63;100.00
6034;BME280;3045;43.226;27.858;2022-08-19T03:22:00;151981.50;;;23.63;100.00
6034;BME280;3045;43.226;27.858;2022-08-19T03:24:27;151968.75;;;23.58;100.00
6034;BME280;3045;43.226;27.858;2022-08-19T03:26:56;151963.63;;;23.56;100.00
6034;BME280;3045;43.226;27.858;2022-08-19T03:29:24;151982.75;;;23.64;100.00
6034;BME280;3045;43.226;27.858;2022-08-19T03:31:52;151994.22;;;23.68;100.00
6034;BME280;3045;43.226;27.858;2022-08-19T03:34:23;151995.50;;;23.69;100.00
6034;BME280;3045;43.226;27.858;2022-08-19T03:36:52;151986.59;;;23.65;100.00
6034;BME280;3045;43.226;27.858;2022-08-19T03:39:21;151989.16;;;23.66;100.00
6034;BME280;3045;43.226;27.858;2022-08-19T03:41:49;152022.34;;;23.80;100.00
6034;BME280;3045;43.226;27.858;2022-08-19T03:44:20;152005.72;;;23.73;100.00
6034;BME280;3045;43.226;27.858;2022-08-19T03:46:49;152028.69;;;23.82;100.00
6034;BME280;3045;43.226;27.858;2022-08-19T03:49:17;152050.41;;;23.91;100.00
6034;BME280;3045;43.226;27.858;2022-08-19T03:51:45;152042.75;;;23.88;100.00
6034;BME280;3045;43.226;27.858;2022-08-19T03:54:14;152106.59;;;24.13;100.00
6034;BME280;3045;43.226;27.858;2022-08-19T03:56:44;152151.34;;;24.31;100.00
6034;BME280;3045;43.226;27.858;2022-08-19T03:59:13;152181.97;;;24.43;100.00
6034;BME280;3045;43.226;27.858;2022-08-19T04:01:40;152220.25;;;24.58;100.00
6034;BME280;3045;43.226;27.858;2022-08-19T04:04:07;152273.91;;;24.79;100.00
6034;BME280;3045;43.226;27.858;2022-08-19T04:06:36;152263.69;;;24.75;100.00
6034;BME280;3045;43.226;27.858;2022-08-19T04:09:06;152350.59;;;25.10;100.00
6034;BME280;3045;43.226;27.858;2022-08-19T04:11:36;152395.31;;;25.27;100.00
6034;BME280;3045;43.226;27.858;2022-08-19T04:14:06;152431.13;;;25.41;100.00
6034;BME280;3045;43.226;27.858;2022-08-19T04:16:33;152487.34;;;25.64;100.00
6034;BME280;3045;43.226;27.858;2022-08-19T04:19:01;152535.94;;;25.83;100.00
6034;BME280;3045;43.226;27.858;2022-08-19T04:21:29;152574.28;;;25.98;100.00
6034;BME280;3045;43.226;27.858;2022-08-19T04:23:56;152640.81;;;26.24;100.00
6034;BME280;3045;43.226;27.858;2022-08-19T04:26:26;152683.00;;;26.41;100.00
6034;BME280;3045;43.226;27.858;2022-08-19T04:28:54;152727.75;;;26.59;100.00
6034;BME280;3045;43.226;27.858;2022-08-19T04:31:25;152776.31;;;26.78;100.00
6034;BME280;3045;43.226;27.858;2022-08-19T04:33:53;152833.94;;;27.01;100.00
6034;BME280;3045;43.226;27.858;2022-08-19T04:36:23;152877.44;;;27.18;100.00
6034;BME280;3045;43.226;27.858;2022-08-19T04:38:54;152947.78;;;27.46;100.00
6034;BME280;3045;43.226;27.858;2022-08-19T04:41:21;153002.84;;;27.67;100.00
6034;BME280;3045;43.226;27.858;2022-08-19T04:44:05;153057.88;;;27.89;100.00
6034;BME280;3045;43.226;27.858;2022-08-19T04:46:34;153110.41;;;28.10;100.00
6034;BME280;3045;43.226;27.858;2022-08-19T04:49:03;153161.66;;;28.30;100.00
6034;BME280;3045;43.226;27.858;2022-08-19T04:51:31;153187.22;;;28.40;100.00
6034;BME280;3045;43.226;27.858;2022-08-19T04:53:58;153178.25;;;28.37;100.00
6034;BME280;3045;43.226;27.858;2022-08-19T04:56:26;153184.66;;;28.39;100.00
6034;BME280;3045;43.226;27.858;2022-08-19T04:58:55;153248.66;;;28.65;100.00
6034;BME280;3045;43.226;27.858;2022-08-19T05:01:26;153297.38;;;28.84;100.00
6034;BME280;3045;43.226;27.858;2022-08-19T05:03:57;153331.97;;;28.97;100.00
6034;BME280;3045;43.226;27.858;2022-08-19T05:06:25;153364.00;;;29.10;100.00
6034;BME280;3045;43.226;27.858;2022-08-19T05:08:52;153397.28;;;29.23;100.00
6034;BME280;3045;43.226;27.858;2022-08-19T05:11:22;153399.81;;;29.24;100.00
6034;BME280;3045;43.226;27.858;2022-08-19T05:13:54;153448.56;;;29.43;100.00
6034;BME280;3045;43.226;27.858;2022-08-19T05:16:22;153628.00;;;30.14;100.00
6034;BME280;3045;43.226;27.858;2022-08-19T05:18:50;153760.06;;;30.66;100.00
6034;BME280;3045;43.226;27.858;2022-08-19T05:21:36;153860.13;;;31.06;100.00
6034;BME280;3045;43.226;27.858;2022-08-19T05:24:22;153907.56;;;31.24;100.00
6034;BME280;3045;43.226;27.858;2022-08-19T05:26:51;154016.63;;;31.67;100.00
6034;BME280;3045;43.226;27.858;2022-08-19T05:29:20;154014.06;;;31.66;100.00
6034;BME280;3045;43.226;27.858;2022-08-19T05:31:47;154109.03;;;32.04;100.00
6034;BME280;3045;43.226;27.858;2022-08-19T05:34:16;154274.63;;;32.69;100.00
6034;BME280;3045;43.226;27.858;2022-08-19T05:36:45;154491.63;;;33.55;99.84
6034;BME280;3045;43.226;27.858;2022-08-19T05:39:15;154748.63;;;34.56;90.17
6034;BME280;3045;43.226;27.858;2022-08-19T05:41:43;154931.19;;;35.27;85.24
6034;BME280;3045;43.226;27.858;2022-08-19T05:44:10;155019.91;;;35.62;80.03
6034;BME280;3045;43.226;27.858;2022-08-19T05:46:38;155184.59;;;36.27;74.70
6034;BME280;3045;43.226;27.858;2022-08-19T05:49:05;155143.44;;;36.11;75.50
6034;BME280;3045;43.226;27.858;2022-08-19T05:51:33;155241.19;;;36.49;72.41
6034;BME280;3045;43.226;27.858;2022-08-19T05:54:03;155264.34;;;36.58;71.98
6034;BME280;3045;43.226;27.858;2022-08-19T05:56:31;155215.44;;;36.39;73.31
6034;BME280;3045;43.226;27.858;2022-08-19T05:59:04;155067.53;;;35.81;77.31
6034;BME280;3045;43.226;27.858;2022-08-19T06:01:37;154935.06;;;35.29;81.29
6034;BME280;3045;43.226;27.858;2022-08-19T06:04:05;155122.81;;;36.03;77.21
6034;BME280;3045;43.226;27.858;2022-08-19T06:06:33;155373.69;;;37.01;70.57
6034;BME280;3045;43.226;27.858;2022-08-19T06:09:02;155544.91;;;37.69;67.02
6034;BME280;3045;43.226;27.858;2022-08-19T06:11:33;155732.97;;;38.43;61.02
6034;BME280;3045;43.226;27.858;2022-08-19T06:14:03;155745.84;;;38.48;59.57
6034;BME280;3045;43.226;27.858;2022-08-19T06:16:32;155807.63;;;38.72;57.92
6034;BME280;3045;43.226;27.858;2022-08-19T06:19:03;155783.16;;;38.62;57.96
6034;BME280;3045;43.226;27.858;2022-08-19T06:21:32;155656.97;;;38.13;60.15
6034;BME280;3045;43.226;27.858;2022-08-19T06:24:01;155557.78;;;37.74;62.99
6034;BME280;3045;43.226;27.858;2022-08-19T06:26:29;155308.06;;;36.76;68.39
6034;BME280;3045;43.226;27.858;2022-08-19T06:28:56;155107.38;;;35.97;74.61
6034;BME280;3045;43.226;27.858;2022-08-19T06:31:25;155149.84;;;36.13;73.91
6034;BME280;3045;43.226;27.858;2022-08-19T06:33:52;155362.09;;;36.97;68.20
6034;BME280;3045;43.226;27.858;2022-08-19T06:36:21;155225.72;;;36.43;71.84
6034;BME280;3045;43.226;27.858;2022-08-19T06:38:57;154958.22;;;35.38;78.31
6034;BME280;3045;43.226;27.858;2022-08-19T06:41:27;154860.47;;;35.00;81.75
6034;BME280;3045;43.226;27.858;2022-08-19T06:43:55;154729.34;;;34.48;86.89
6034;BME280;3045;43.226;27.858;2022-08-19T06:46:23;154672.81;;;34.26;88.70
6034;BME280;3045;43.226;27.858;2022-08-19T06:48:50;154570.03;;;33.85;93.13
6034;BME280;3045;43.226;27.858;2022-08-19T06:51:19;154495.50;;;33.56;93.54
6034;BME280;3045;43.226;27.858;2022-08-19T06:53:46;154525.09;;;33.68;94.77
6034;BME280;3045;43.226;27.858;2022-08-19T06:56:14;154605.97;;;34.00;94.71
6034;BME280;3045;43.226;27.858;2022-08-19T06:58:43;154623.97;;;34.07;93.19
6034;BME280;3045;43.226;27.858;2022-08-19T07:01:10;154686.97;;;34.31;91.17
6034;BME280;3045;43.226;27.858;2022-08-19T07:03:38;154751.19;;;34.57;91.60
6034;BME280;3045;43.226;27.858;2022-08-19T07:06:06;154729.34;;;34.48;87.88
6034;BME280;3045;43.226;27.858;2022-08-19T07:08:36;154662.53;;;34.22;90.36
6034;BME280;3045;43.226;27.858;2022-08-19T07:11:07;154739.63;;;34.52;88.71
6034;BME280;3045;43.226;27.858;2022-08-19T07:13:35;154805.22;;;34.78;86.75
6034;BME280;3045;43.226;27.858;2022-08-19T07:16:06;154815.50;;;34.82;87.47
6034;BME280;3045;43.226;27.858;2022-08-19T07:18:34;154825.78;;;34.86;84.34
6034;BME280;3045;43.226;27.858;2022-08-19T07:21:06;154796.22;;;34.74;84.59
6034;BME280;3045;43.226;27.858;2022-08-19T07:23:33;154827.06;;;34.87;87.64
6034;BME280;3045;43.226;27.858;2022-08-19T07:26:05;154851.50;;;34.96;85.17
6034;BME280;3045;43.226;27.858;2022-08-19T07:28:32;154919.63;;;35.23;83.97
6034;BME280;3045;43.226;27.858;2022-08-19T07:30:59;154909.34;;;35.19;81.37
6034;BME280;3045;43.226;27.858;2022-08-19T07:33:28;154868.16;;;35.03;83.50
6034;BME280;3045;43.226;27.858;2022-08-19T07:35:57;154927.38;;;35.26;84.18
6034;BME280;3045;43.226;27.858;2022-08-19T07:38:25;154955.63;;;35.37;82.81
6034;BME280;3045;43.226;27.858;2022-08-19T07:40:52;154924.78;;;35.25;80.91
6034;BME280;3045;43.226;27.858;2022-08-19T07:43:22;154927.38;;;35.26;80.63
6034;BME280;3045;43.226;27.858;2022-08-19T07:45:50;154940.19;;;35.31;82.02
6034;BME280;3045;43.226;27.858;2022-08-19T07:48:17;154960.78;;;35.39;80.55
6034;BME280;3045;43.226;27.858;2022-08-19T07:50:46;154958.22;;;35.38;78.37
6034;BME280;3045;43.226;27.858;2022-08-19T07:53:13;154976.19;;;35.45;78.08
6034;BME280;3045;43.226;27.858;2022-08-19T07:55:40;154879.75;;;35.07;78.05
6034;BME280;3045;43.226;27.858;2022-08-19T07:58:08;154924.78;;;35.25;79.34
6034;BME280;3045;43.226;27.858;2022-08-19T08:00:35;154920.91;;;35.23;80.32
6034;BME280;3045;43.226;27.858;2022-08-19T08:03:02;154928.59;;;35.26;76.77
6034;BME280;3045;43.226;27.858;2022-08-19T08:05:28;154962.03;;;35.40;76.00
6034;BME280;3045;43.226;27.858;2022-08-19T08:08:14;154996.75;;;35.53;73.83
6034;BME280;3045;43.226;27.858;2022-08-19T08:10:58;154983.88;;;35.48;72.48
6034;BME280;3045;43.226;27.858;2022-08-19T08:13:25;155072.66;;;35.83;71.92
6034;BME280;3045;43.226;27.858;2022-08-19T08:15:53;155079.09;;;35.86;70.78
6034;BME280;3045;43.226;27.858;2022-08-19T08:18:20;154963.31;;;35.40;71.69
6034;BME280;3045;43.226;27.858;2022-08-19T08:20:47;154910.63;;;35.19;73.46
6034;BME280;3045;43.226;27.858;2022-08-19T08:23:15;154994.16;;;35.52;70.32
6034;BME280;3045;43.226;27.858;2022-08-19T08:25:52;155081.63;;;35.87;69.75
6034;BME280;3045;43.226;27.858;2022-08-19T08:28:20;155097.09;;;35.93;69.71
6034;BME280;3045;43.226;27.858;2022-08-19T08:30:48;155160.13;;;36.17;64.27
6034;BME280;3045;43.226;27.858;2022-08-19T08:33:20;155148.56;;;36.13;66.08
6034;BME280;3045;43.226;27.858;2022-08-19T08:35:48;155048.22;;;35.73;67.56
6034;BME280;3045;43.226;27.858;2022-08-19T08:38:17;154986.47;;;35.49;68.73
6034;BME280;3045;43.226;27.858;2022-08-19T08:40:47;155014.78;;;35.60;69.02
6034;BME280;3045;43.226;27.858;2022-08-19T08:43:22;155059.78;;;35.78;69.00
6034;BME280;3045;43.226;27.858;2022-08-19T08:45:55;155094.50;;;35.92;66.04
6034;BME280;3045;43.226;27.858;2022-08-19T08:48:29;155124.06;;;36.03;65.56
6034;BME280;3045;43.226;27.858;2022-08-19T08:50:59;155232.13;;;36.46;66.62
6034;BME280;3045;43.226;27.858;2022-08-19T08:53:30;155269.50;;;36.60;66.32
6034;BME280;3045;43.226;27.858;2022-08-19T08:56:01;155247.59;;;36.52;63.17
6034;BME280;3045;43.226;27.858;2022-08-19T08:58:42;155176.88;;;36.24;63.66
6034;BME280;3045;43.226;27.858;2022-08-19T09:01:11;155161.44;;;36.18;64.11
6034;BME280;3045;43.226;27.858;2022-08-19T09:03:41;155140.81;;;36.10;60.64
6034;BME280;3045;43.226;27.858;2022-08-19T09:06:14;155131.81;;;36.06;64.04
6034;BME280;3045;43.226;27.858;2022-08-19T09:08:49;155225.72;;;36.43;63.70
6034;BME280;3045;43.226;27.858;2022-08-19T09:11:37;155134.34;;;36.07;61.86
6034;BME280;3045;43.226;27.858;2022-08-19T09:14:12;155184.59;;;36.27;63.76
6034;BME280;3045;43.226;27.858;2022-08-19T09:16:40;155109.97;;;35.98;65.63
6034;BME280;3045;43.226;27.858;2022-08-19T09:19:08;155115.06;;;36.00;63.53
6034;BME280;3045;43.226;27.858;2022-08-19T09:21:36;155100.97;;;35.94;62.63
6034;BME280;3045;43.226;27.858;2022-08-19T09:24:05;155148.56;;;36.13;62.74
6034;BME280;3045;43.226;27.858;2022-08-19T09:26:33;155140.81;;;36.10;63.14
6034;BME280;3045;43.226;27.858;2022-08-19T09:29:00;155145.97;;;36.12;61.20
6034;BME280;3045;43.226;27.858;2022-08-19T09:31:31;155025.09;;;35.64;64.57
6034;BME280;3045;43.226;27.858;2022-08-19T09:34:05;155004.44;;;35.56;63.41
6034;BME280;3045;43.226;27.858;2022-08-19T09:36:33;155070.06;;;35.82;58.03
6034;BME280;3045;43.226;27.858;2022-08-19T09:39:03;155179.41;;;36.25;56.11
6034;BME280;3045;43.226;27.858;2022-08-19T09:41:31;155270.81;;;36.61;58.15
6034;BME280;3045;43.226;27.858;2022-08-19T09:43:59;155369.84;;;37.00;56.12
6034;BME280;3045;43.226;27.858;2022-08-19T09:46:27;155068.81;;;35.82;59.21
6034;BME280;3045;43.226;27.858;2022-08-19T09:48:58;155028.94;;;35.66;59.26
6034;BME280;3045;43.226;27.858;2022-08-19T09:51:26;154917.09;;;35.22;60.13
6034;BME280;3045;43.226;27.858;2022-08-19T09:53:54;155046.97;;;35.73;61.43
6034;BME280;3045;43.226;27.858;2022-08-19T09:56:22;154969.78;;;35.43;65.39
6034;BME280;3045;43.226;27.858;2022-08-19T09:58:51;154944.06;;;35.33;59.98
6034;BME280;3045;43.226;27.858;2022-08-19T10:01:20;155018.59;;;35.62;58.26
6034;BME280;3045;43.226;27.858;2022-08-19T10:03:48;155151.16;;;36.14;58.20
6034;BME280;3045;43.226;27.858;2022-08-19T10:06:16;155192.28;;;36.30;58.91
6034;BME280;3045;43.226;27.858;2022-08-19T10:08:44;155176.88;;;36.24;59.26
6034;BME280;3045;43.226;27.858;2022-08-19T10:11:11;155179.41;;;36.25;57.44
6034;BME280;3045;43.226;27.858;2022-08-19T10:13:42;155179.41;;;36.25;56.88
6034;BME280;3045;43.226;27.858;2022-08-19T10:16:14;155261.75;;;36.57;54.44
6034;BME280;3045;43.226;27.858;2022-08-19T10:18:41;155350.53;;;36.92;54.61
6034;BME280;3045;43.226;27.858;2022-08-19T10:21:13;155395.63;;;37.10;53.97
6034;BME280;3045;43.226;27.858;2022-08-19T10:23:42;155432.94;;;37.25;53.85
6034;BME280;3045;43.226;27.858;2022-08-19T10:26:12;155021.19;;;35.63;58.79
6034;BME280;3045;43.226;27.858;2022-08-19T10:28:40;155107.38;;;35.97;60.38
6034;BME280;3045;43.226;27.858;2022-08-19T10:31:08;155085.53;;;35.88;56.79
6034;BME280;3045;43.226;27.858;2022-08-19T10:33:37;155016.03;;;35.61;58.99
6034;BME280;3045;43.226;27.858;2022-08-19T10:36:07;155138.22;;;36.09;55.73
6034;BME280;3045;43.226;27.858;2022-08-19T10:38:35;155254.00;;;36.54;55.62
6034;BME280;3045;43.226;27.858;2022-08-19T10:41:10;155353.09;;;36.93;53.46
6034;BME280;3045;43.226;27.858;2022-08-19T10:43:37;155315.81;;;36.79;54.64
6034;BME280;3045;43.226;27.858;2022-08-19T10:46:06;155281.09;;;36.65;53.54
6034;BME280;3045;43.226;27.858;2022-08-19T10:48:33;155183.28;;;36.27;54.56
6034;BME280;3045;43.226;27.858;2022-08-19T10:51:01;155151.16;;;36.14;53.53
6034;BME280;3045;43.226;27.858;2022-08-19T10:53:46;154857.91;;;34.99;58.44
6034;BME280;3045;43.226;27.858;2022-08-19T10:56:13;154883.63;;;35.09;60.63
6034;BME280;3045;43.226;27.858;2022-08-19T10:58:58;154904.22;;;35.17;63.01
6034;BME280;3045;43.226;27.858;2022-08-19T11:01:25;154919.63;;;35.23;60.81
6034;BME280;3045;43.226;27.858;2022-08-19T11:03:52;154941.47;;;35.32;61.14
6034;BME280;3045;43.226;27.858;2022-08-19T11:06:22;154978.78;;;35.46;61.75
6034;BME280;3045;43.226;27.858;2022-08-19T11:08:50;154870.75;;;35.04;63.30
6034;BME280;3045;43.226;27.858;2022-08-19T11:11:17;154869.47;;;35.03;62.04
6034;BME280;3045;43.226;27.858;2022-08-19T11:13:44;154737.06;;;34.51;62.28
6034;BME280;3045;43.226;27.858;2022-08-19T11:16:13;154703.63;;;34.38;62.64
6034;BME280;3045;43.226;27.858;2022-08-19T11:18:44;154742.22;;;34.53;58.74
6034;BME280;3045;43.226;27.858;2022-08-19T11:21:14;154805.22;;;34.78;60.33
6034;BME280;3045;43.226;27.858;2022-08-19T11:23:44;154766.63;;;34.63;60.09
6034;BME280;3045;43.226;27.858;2022-08-19T11:26:11;154791.06;;;34.72;60.75
6034;BME280;3045;43.226;27.858;2022-08-19T11:28:38;154775.66;;;34.66;77.68
6034;BME280;3045;43.226;27.858;2022-08-19T11:31:09;154658.72;;;34.20;100.00
6034;BME280;3045;43.226;27.858;2022-08-19T11:33:36;154526.38;;;33.68;100.00
6034;BME280;3045;43.226;27.858;2022-08-19T11:36:04;154283.59;;;32.73;100.00
6034;BME280;3045;43.226;27.858;2022-08-19T11:38:31;154130.84;;;32.12;100.00
6034;BME280;3045;43.226;27.858;2022-08-19T11:41:01;154034.56;;;31.74;100.00
6034;BME280;3045;43.226;27.858;2022-08-19T11:43:28;153971.69;;;31.50;100.00
6034;BME280;3045;43.226;27.858;2022-08-19T11:45:57;153892.19;;;31.18;100.00
6034;BME280;3045;43.226;27.858;2022-08-19T11:48:24;153879.34;;;31.13;100.00
6034;BME280;3045;43.226;27.858;2022-08-19T11:50:52;153802.38;;;30.83;100.00
6034;BME280;3045;43.226;27.858;2022-08-19T11:53:21;153717.78;;;30.50;100.00
6034;BME280;3045;43.226;27.858;2022-08-19T11:55:53;153575.44;;;29.93;100.00
6034;BME280;3045;43.226;27.858;2022-08-19T11:58:22;153561.34;;;29.88;100.00
6034;BME280;3045;43.226;27.858;2022-08-19T12:00:50;153497.22;;;29.63;100.00
6034;BME280;3045;43.226;27.858;2022-08-19T12:03:17;153398.59;;;29.24;100.00
6034;BME280;3045;43.226;27.858;2022-08-19T12:05:45;153502.38;;;29.65;100.00
6034;BME280;3045;43.226;27.858;2022-08-19T12:08:12;153495.94;;;29.62;100.00
6034;BME280;3045;43.226;27.858;2022-08-19T12:10:40;153485.69;;;29.58;100.00
6034;BME280;3045;43.226;27.858;2022-08-19T12:13:08;153458.81;;;29.47;100.00
6034;BME280;3045;43.226;27.858;2022-08-19T12:15:38;153463.91;;;29.49;100.00
6034;BME280;3045;43.226;27.858;2022-08-19T12:18:06;153422.94;;;29.33;100.00
6034;BME280;3045;43.226;27.858;2022-08-19T12:20:35;153417.84;;;29.31;100.00
6034;BME280;3045;43.226;27.858;2022-08-19T12:23:02;153370.38;;;29.13;100.00
6034;BME280;3045;43.226;27.858;2022-08-19T12:25:29;153380.63;;;29.17;100.00
6034;BME280;3045;43.226;27.858;2022-08-19T12:27:57;153335.78;;;28.99;100.00
6034;BME280;3045;43.226;27.858;2022-08-19T12:30:24;153299.97;;;28.85;100.00
6034;BME280;3045;43.226;27.858;2022-08-19T12:32:53;153317.88;;;28.92;100.00
6034;BME280;3045;43.226;27.858;2022-08-19T12:35:23;153302.50;;;28.86;100.00
6034;BME280;3045;43.226;27.858;2022-08-19T12:37:49;153333.25;;;28.98;100.00
6034;BME280;3045;43.226;27.858;2022-08-19T12:40:16;153366.50;;;29.11;100.00
6034;BME280;3045;43.226;27.858;2022-08-19T12:42:45;153374.25;;;29.14;100.00
6034;BME280;3045;43.226;27.858;2022-08-19T12:45:13;153302.50;;;28.86;100.00
6034;BME280;3045;43.226;27.858;2022-08-19T12:47:40;153314.00;;;28.90;100.00
6034;BME280;3045;43.226;27.858;2022-08-19T12:50:08;153320.44;;;28.93;100.00
6034;BME280;3045;43.226;27.858;2022-08-19T12:52:36;153340.94;;;29.01;100.00
6034;BME280;3045;43.226;27.858;2022-08-19T12:55:05;153351.19;;;29.05;100.00
6034;BME280;3045;43.226;27.858;2022-08-19T12:57:33;153339.66;;;29.00;100.00
6034;BME280;3045;43.226;27.858;2022-08-19T13:00:05;153352.47;;;29.05;100.00
6034;BME280;3045;43.226;27.858;2022-08-19T13:02:34;153294.81;;;28.83;100.00
6034;BME280;3045;43.226;27.858;2022-08-19T13:05:02;153283.28;;;28.78;100.00